sensor_id;sensor_type;location;lat;lon;timestamp;pressure;altitude;pressure_sealevel;temperature;humidity
8061;BME280;4073;42.626;25.386;2022-09-09T00:02:03;97472.22;;;17.89;82.83
8061;BME280;4073;42.626;25.386;2022-09-09T00:04:35;97464.25;;;17.84;82.74
8061;BME280;4073;42.626;25.386;2022-09-09T00:15:13;97467.56;;;17.50;80.62
8061;BME280;4073;42.626;25.386;2022-09-09T00:17:43;97477.47;;;17.41;80.83
8061;BME280;4073;42.626;25.386;2022-09-09T00:23:14;97476.16;;;17.17;81.87
8061;BME280;4073;42.626;25.386;2022-09-09T00:28:21;97477.56;;;17.14;81.92
8061;BME280;4073;42.626;25.386;2022-09-09T00:30:48;97471.19;;;17.10;82.36
8061;BME280;4073;42.626;25.386;2022-09-09T00:33:15;97471.50;;;17.09;82.54
8061;BME280;4073;42.626;25.386;2022-09-09T00:35:58;97487.41;;;17.10;82.69
8061;BME280;4073;42.626;25.386;2022-09-09T00:41:14;97496.50;;;17.14;82.54
8061;BME280;4073;42.626;25.386;2022-09-09T00:43:49;97494.59;;;17.15;82.51
8061;BME280;4073;42.626;25.386;2022-09-09T00:46:41;97496.78;;;17.13;83.11
8061;BME280;4073;42.626;25.386;2022-09-09T00:52:23;97503.63;;;17.10;83.79
8061;BME280;4073;42.626;25.386;2022-09-09T00:57:26;97490.94;;;16.97;85.06
8061;BME280;4073;42.626;25.386;2022-09-09T01:02:59;97470.50;;;16.69;88.23
8061;BME280;4073;42.626;25.386;2022-09-09T01:05:54;97472.75;;;16.54;89.93
8061;BME280;4073;42.626;25.386;2022-09-09T01:11:12;97479.31;;;16.61;90.26
8061;BME280;4073;42.626;25.386;2022-09-09T01:13:41;97474.13;;;16.65;90.21
8061;BME280;4073;42.626;25.386;2022-09-09T01:16:11;97472.09;;;16.70;89.74
8061;BME280;4073;42.626;25.386;2022-09-09T01:18:40;97470.31;;;16.66;89.73
8061;BME280;4073;42.626;25.386;2022-09-09T01:26:58;97472.59;;;16.72;89.09
8061;BME280;4073;42.626;25.386;2022-09-09T01:29:26;97446.22;;;16.56;89.50
8061;BME280;4073;42.626;25.386;2022-09-09T01:34:21;97452.00;;;16.63;89.97
8061;BME280;4073;42.626;25.386;2022-09-09T01:37:01;97447.72;;;16.62;89.78
8061;BME280;4073;42.626;25.386;2022-09-09T01:39:27;97450.81;;;16.69;89.21
8061;BME280;4073;42.626;25.386;2022-09-09T01:41:54;97459.22;;;16.67;88.88
8061;BME280;4073;42.626;25.386;2022-09-09T01:44:22;97452.50;;;16.65;89.39
8061;BME280;4073;42.626;25.386;2022-09-09T01:46:48;97453.31;;;16.65;89.07
8061;BME280;4073;42.626;25.386;2022-09-09T01:49:13;97453.81;;;16.67;88.55
8061;BME280;4073;42.626;25.386;2022-09-09T01:51:40;97452.00;;;16.63;88.26
8061;BME280;4073;42.626;25.386;2022-09-09T01:54:07;97451.03;;;16.59;88.30
8061;BME280;4073;42.626;25.386;2022-09-09T01:59:34;97439.66;;;16.48;88.45
8061;BME280;4073;42.626;25.386;2022-09-09T02:02:26;97436.75;;;16.45;88.36
8061;BME280;4073;42.626;25.386;2022-09-09T02:05:21;97439.25;;;16.41;88.39
8061;BME280;4073;42.626;25.386;2022-09-09T02:07:56;97430.34;;;16.27;88.93
8061;BME280;4073;42.626;25.386;2022-09-09T02:10:33;97438.34;;;16.19;88.57
8061;BME280;4073;42.626;25.386;2022-09-09T02:13:12;97449.25;;;16.14;88.88
8061;BME280;4073;42.626;25.386;2022-09-09T02:15:47;97448.44;;;16.00;89.16
8061;BME280;4073;42.626;25.386;2022-09-09T02:18:19;97443.72;;;15.92;89.40
8061;BME280;4073;42.626;25.386;2022-09-09T02:20:49;97434.66;;;15.88;89.56
8061;BME280;4073;42.626;25.386;2022-09-09T02:23:16;97434.25;;;15.81;90.22
8061;BME280;4073;42.626;25.386;2022-09-09T02:25:44;97430.06;;;15.88;89.86
8061;BME280;4073;42.626;25.386;2022-09-09T02:28:14;97427.06;;;15.90;89.88
8061;BME280;4073;42.626;25.386;2022-09-09T02:30:42;97428.97;;;15.89;90.29
8061;BME280;4073;42.626;25.386;2022-09-09T02:33:14;97436.66;;;15.96;90.75
8061;BME280;4073;42.626;25.386;2022-09-09T02:35:40;97433.66;;;15.97;91.38
8061;BME280;4073;42.626;25.386;2022-09-09T02:38:10;97437.38;;;16.01;92.04
8061;BME280;4073;42.626;25.386;2022-09-09T02:40:37;97419.38;;;15.97;92.74
8061;BME280;4073;42.626;25.386;2022-09-09T02:43:03;97428.56;;;15.96;93.01
8061;BME280;4073;42.626;25.386;2022-09-09T02:45:36;97428.19;;;15.89;92.77
8061;BME280;4073;42.626;25.386;2022-09-09T02:51:46;97441.94;;;15.87;93.77
8061;BME280;4073;42.626;25.386;2022-09-09T02:56:52;97441.38;;;15.90;93.45
8061;BME280;4073;42.626;25.386;2022-09-09T02:59:22;97433.75;;;15.92;93.72
8061;BME280;4073;42.626;25.386;2022-09-09T03:01:49;97433.75;;;15.92;93.88
8061;BME280;4073;42.626;25.386;2022-09-09T03:04:15;97435.84;;;15.95;93.67
8061;BME280;4073;42.626;25.386;2022-09-09T03:06:40;97435.25;;;15.98;93.44
8061;BME280;4073;42.626;25.386;2022-09-09T03:09:06;97440.34;;;16.00;93.38
8061;BME280;4073;42.626;25.386;2022-09-09T03:11:33;97438.56;;;15.95;93.53
8061;BME280;4073;42.626;25.386;2022-09-09T03:13:58;97444.75;;;15.96;93.59
8061;BME280;4073;42.626;25.386;2022-09-09T03:16:24;97449.63;;;15.94;94.14
8061;BME280;4073;42.626;25.386;2022-09-09T03:18:49;97447.94;;;15.84;94.32
8061;BME280;4073;42.626;25.386;2022-09-09T03:21:15;97439.03;;;15.70;94.91
8061;BME280;4073;42.626;25.386;2022-09-09T03:23:41;97431.72;;;15.71;95.15
8061;BME280;4073;42.626;25.386;2022-09-09T03:26:07;97438.44;;;15.73;95.56
8061;BME280;4073;42.626;25.386;2022-09-09T03:28:33;97431.63;;;15.62;96.17
8061;BME280;4073;42.626;25.386;2022-09-09T03:31:00;97438.81;;;15.67;96.49
8061;BME280;4073;42.626;25.386;2022-09-09T03:33:25;97442.81;;;15.69;96.11
8061;BME280;4073;42.626;25.386;2022-09-09T03:35:51;97444.13;;;15.72;96.23
8061;BME280;4073;42.626;25.386;2022-09-09T03:38:17;97450.91;;;15.69;96.42
8061;BME280;4073;42.626;25.386;2022-09-09T03:40:50;97440.28;;;15.59;97.46
8061;BME280;4073;42.626;25.386;2022-09-09T03:43:16;97442.91;;;15.64;97.25
8061;BME280;4073;42.626;25.386;2022-09-09T03:45:48;97448.78;;;15.66;96.97
8061;BME280;4073;42.626;25.386;2022-09-09T03:48:14;97452.00;;;15.68;96.23
8061;BME280;4073;42.626;25.386;2022-09-09T03:50:51;97455.50;;;15.69;95.54
8061;BME280;4073;42.626;25.386;2022-09-09T03:53:20;97462.28;;;15.66;94.86
8061;BME280;4073;42.626;25.386;2022-09-09T03:55:47;97463.38;;;15.65;94.90
8061;BME280;4073;42.626;25.386;2022-09-09T03:58:14;97477.44;;;15.62;95.68
8061;BME280;4073;42.626;25.386;2022-09-09T04:00:40;97475.84;;;15.61;96.21
8061;BME280;4073;42.626;25.386;2022-09-09T04:03:10;97481.25;;;15.61;95.73
8061;BME280;4073;42.626;25.386;2022-09-09T04:05:36;97485.31;;;15.59;95.05
8061;BME280;4073;42.626;25.386;2022-09-09T04:08:06;97468.03;;;15.46;94.66
8061;BME280;4073;42.626;25.386;2022-09-09T04:10:32;97479.81;;;15.50;94.83
8061;BME280;4073;42.626;25.386;2022-09-09T04:12:58;97487.31;;;15.53;94.60
8061;BME280;4073;42.626;25.386;2022-09-09T04:15:25;97471.81;;;15.45;94.99
8061;BME280;4073;42.626;25.386;2022-09-09T04:17:50;97477.03;;;15.55;94.44
8061;BME280;4073;42.626;25.386;2022-09-09T04:20:16;97478.03;;;15.59;94.29
8061;BME280;4073;42.626;25.386;2022-09-09T04:22:41;97480.53;;;15.56;94.68
8061;BME280;4073;42.626;25.386;2022-09-09T04:25:07;97458.34;;;15.45;95.33
8061;BME280;4073;42.626;25.386;2022-09-09T04:27:33;97469.06;;;15.64;95.11
8061;BME280;4073;42.626;25.386;2022-09-09T04:29:58;97461.13;;;15.86;94.33
8061;BME280;4073;42.626;25.386;2022-09-09T04:32:24;97467.44;;;16.08;93.50
8061;BME280;4073;42.626;25.386;2022-09-09T04:34:52;97468.94;;;16.41;91.75
8061;BME280;4073;42.626;25.386;2022-09-09T04:37:17;97458.28;;;16.85;89.21
8061;BME280;4073;42.626;25.386;2022-09-09T04:39:43;97462.00;;;17.55;85.59
8061;BME280;4073;42.626;25.386;2022-09-09T04:42:08;97464.63;;;17.99;82.60
8061;BME280;4073;42.626;25.386;2022-09-09T04:44:34;97468.47;;;18.38;80.06
8061;BME280;4073;42.626;25.386;2022-09-09T04:46:59;97471.19;;;18.46;79.71
8061;BME280;4073;42.626;25.386;2022-09-09T04:49:25;97474.06;;;18.41;79.42
8061;BME280;4073;42.626;25.386;2022-09-09T04:51:51;97468.94;;;18.40;79.51
8061;BME280;4073;42.626;25.386;2022-09-09T04:54:17;97450.81;;;18.40;79.73
8061;BME280;4073;42.626;25.386;2022-09-09T04:56:42;97456.59;;;18.56;79.15
8061;BME280;4073;42.626;25.386;2022-09-09T04:59:08;97463.63;;;18.74;78.49
8061;BME280;4073;42.626;25.386;2022-09-09T05:01:35;97459.16;;;18.86;77.87
8061;BME280;4073;42.626;25.386;2022-09-09T05:04:02;97460.75;;;18.96;77.65
8061;BME280;4073;42.626;25.386;2022-09-09T05:06:28;97465.09;;;19.05;76.89
8061;BME280;4073;42.626;25.386;2022-09-09T05:08:56;97461.41;;;19.10;76.87
8061;BME280;4073;42.626;25.386;2022-09-09T05:11:25;97459.16;;;19.20;76.34
8061;BME280;4073;42.626;25.386;2022-09-09T05:13:52;97454.69;;;19.24;76.13
8061;BME280;4073;42.626;25.386;2022-09-09T05:16:19;97459.50;;;19.27;76.44
8061;BME280;4073;42.626;25.386;2022-09-09T05:18:45;97463.03;;;19.36;76.94
8061;BME280;4073;42.626;25.386;2022-09-09T05:21:17;97453.75;;;19.37;76.56
8061;BME280;4073;42.626;25.386;2022-09-09T05:23:42;97456.16;;;19.47;76.51
8061;BME280;4073;42.626;25.386;2022-09-09T05:26:12;97462.19;;;19.61;75.53
8061;BME280;4073;42.626;25.386;2022-09-09T05:28:38;97460.28;;;19.62;75.55
8061;BME280;4073;42.626;25.386;2022-09-09T05:31:06;97456.59;;;19.75;75.08
8061;BME280;4073;42.626;25.386;2022-09-09T05:33:33;97449.84;;;19.89;74.51
8061;BME280;4073;42.626;25.386;2022-09-09T05:36:04;97446.56;;;20.13;73.71
8061;BME280;4073;42.626;25.386;2022-09-09T05:38:31;97453.94;;;20.42;72.46
8061;BME280;4073;42.626;25.386;2022-09-09T05:40:58;97452.56;;;20.65;71.50
8061;BME280;4073;42.626;25.386;2022-09-09T05:43:24;97452.69;;;20.89;70.87
8061;BME280;4073;42.626;25.386;2022-09-09T05:46:10;97455.84;;;21.20;69.71
8061;BME280;4073;42.626;25.386;2022-09-09T05:48:38;97449.03;;;21.46;68.31
8061;BME280;4073;42.626;25.386;2022-09-09T05:51:06;97445.75;;;21.73;66.94
8061;BME280;4073;42.626;25.386;2022-09-09T05:53:32;97438.53;;;21.89;66.56
8061;BME280;4073;42.626;25.386;2022-09-09T05:56:10;97439.25;;;22.10;64.81
8061;BME280;4073;42.626;25.386;2022-09-09T05:58:37;97443.22;;;22.37;63.22
8061;BME280;4073;42.626;25.386;2022-09-09T06:01:08;97452.91;;;22.58;62.91
8061;BME280;4073;42.626;25.386;2022-09-09T06:03:35;97450.59;;;22.85;61.46
8061;BME280;4073;42.626;25.386;2022-09-09T06:06:04;97452.59;;;23.12;60.44
8061;BME280;4073;42.626;25.386;2022-09-09T06:08:34;97459.63;;;23.13;60.00
8061;BME280;4073;42.626;25.386;2022-09-09T06:11:04;97461.19;;;23.38;59.47
8061;BME280;4073;42.626;25.386;2022-09-09T06:13:30;97462.06;;;23.42;58.48
8061;BME280;4073;42.626;25.386;2022-09-09T06:15:56;97434.13;;;23.60;58.09
8061;BME280;4073;42.626;25.386;2022-09-09T06:18:21;97452.19;;;23.65;57.54
8061;BME280;4073;42.626;25.386;2022-09-09T06:20:58;97453.84;;;23.97;56.76
8061;BME280;4073;42.626;25.386;2022-09-09T06:23:24;97448.94;;;24.18;55.52
8061;BME280;4073;42.626;25.386;2022-09-09T06:25:50;97447.50;;;24.39;54.81
8061;BME280;4073;42.626;25.386;2022-09-09T06:28:17;97454.47;;;24.68;53.19
8061;BME280;4073;42.626;25.386;2022-09-09T06:30:42;97449.47;;;24.89;51.47
8061;BME280;4073;42.626;25.386;2022-09-09T06:33:08;97452.78;;;25.13;51.49
8061;BME280;4073;42.626;25.386;2022-09-09T06:35:35;97467.28;;;25.33;50.83
8061;BME280;4073;42.626;25.386;2022-09-09T06:38:00;97462.59;;;25.34;51.19
8061;BME280;4073;42.626;25.386;2022-09-09T06:40:26;97470.66;;;25.65;50.70
8061;BME280;4073;42.626;25.386;2022-09-09T06:42:51;97470.94;;;25.79;49.85
8061;BME280;4073;42.626;25.386;2022-09-09T06:45:17;97459.44;;;25.92;49.25
8061;BME280;4073;42.626;25.386;2022-09-09T06:47:43;97456.25;;;26.09;47.47
8061;BME280;4073;42.626;25.386;2022-09-09T06:50:09;97461.81;;;26.35;46.79
8061;BME280;4073;42.626;25.386;2022-09-09T06:52:36;97455.09;;;26.55;46.04
8061;BME280;4073;42.626;25.386;2022-09-09T06:55:02;97452.31;;;26.78;45.34
8061;BME280;4073;42.626;25.386;2022-09-09T06:57:28;97447.09;;;26.95;44.51
8061;BME280;4073;42.626;25.386;2022-09-09T06:59:53;97448.00;;;27.03;43.83
8061;BME280;4073;42.626;25.386;2022-09-09T07:02:19;97435.13;;;27.07;43.89
8061;BME280;4073;42.626;25.386;2022-09-09T07:04:45;97436.41;;;27.16;42.44
8061;BME280;4073;42.626;25.386;2022-09-09T07:07:10;97436.69;;;27.08;42.52
8061;BME280;4073;42.626;25.386;2022-09-09T07:09:39;97433.22;;;27.11;42.59
8061;BME280;4073;42.626;25.386;2022-09-09T07:12:05;97455.81;;;27.27;41.94
8061;BME280;4073;42.626;25.386;2022-09-09T07:14:31;97441.50;;;27.44;41.41
8061;BME280;4073;42.626;25.386;2022-09-09T07:16:59;97457.06;;;27.66;41.11
8061;BME280;4073;42.626;25.386;2022-09-09T07:19:25;97453.19;;;27.71;41.36
8061;BME280;4073;42.626;25.386;2022-09-09T07:21:50;97449.75;;;27.81;41.42
8061;BME280;4073;42.626;25.386;2022-09-09T07:24:16;97462.63;;;27.73;41.37
8061;BME280;4073;42.626;25.386;2022-09-09T07:26:41;97467.34;;;27.73;41.40
8061;BME280;4073;42.626;25.386;2022-09-09T07:29:08;97464.69;;;27.80;41.05
8061;BME280;4073;42.626;25.386;2022-09-09T07:31:36;97475.94;;;28.04;40.93
8061;BME280;4073;42.626;25.386;2022-09-09T07:34:02;97471.34;;;28.15;40.88
8061;BME280;4073;42.626;25.386;2022-09-09T07:36:31;97469.75;;;28.14;40.94
8061;BME280;4073;42.626;25.386;2022-09-09T07:39:03;97470.38;;;28.37;40.48
8061;BME280;4073;42.626;25.386;2022-09-09T07:41:35;97473.69;;;28.53;40.53
8061;BME280;4073;42.626;25.386;2022-09-09T07:44:09;97470.25;;;28.27;40.89
8061;BME280;4073;42.626;25.386;2022-09-09T07:46:36;97469.31;;;28.49;40.97
8061;BME280;4073;42.626;25.386;2022-09-09T07:49:05;97471.38;;;28.59;40.54
8061;BME280;4073;42.626;25.386;2022-09-09T07:51:33;97473.16;;;28.88;40.09
8061;BME280;4073;42.626;25.386;2022-09-09T07:54:01;97478.09;;;29.15;38.91
8061;BME280;4073;42.626;25.386;2022-09-09T07:56:28;97464.78;;;29.28;38.27
8061;BME280;4073;42.626;25.386;2022-09-09T07:58:56;97466.78;;;29.34;37.90
8061;BME280;4073;42.626;25.386;2022-09-09T08:01:25;97475.81;;;29.31;37.86
8061;BME280;4073;42.626;25.386;2022-09-09T08:03:57;97472.66;;;29.26;37.19
8061;BME280;4073;42.626;25.386;2022-09-09T08:06:28;97473.94;;;29.49;36.74
8061;BME280;4073;42.626;25.386;2022-09-09T08:08:54;97467.25;;;29.57;36.36
8061;BME280;4073;42.626;25.386;2022-09-09T08:11:22;97462.25;;;29.70;36.43
8061;BME280;4073;42.626;25.386;2022-09-09T08:13:49;97459.94;;;29.97;35.69
8061;BME280;4073;42.626;25.386;2022-09-09T08:16:21;97461.94;;;30.07;35.53
8061;BME280;4073;42.626;25.386;2022-09-09T08:18:50;97449.78;;;30.29;34.03
8061;BME280;4073;42.626;25.386;2022-09-09T08:21:23;97446.56;;;30.16;34.59
8061;BME280;4073;42.626;25.386;2022-09-09T08:23:51;97446.56;;;29.99;35.64
8061;BME280;4073;42.626;25.386;2022-09-09T08:26:44;97437.94;;;30.18;35.27
8061;BME280;4073;42.626;25.386;2022-09-09T08:29:12;97430.47;;;30.25;35.58
8061;BME280;4073;42.626;25.386;2022-09-09T08:31:49;97430.88;;;30.31;35.47
8061;BME280;4073;42.626;25.386;2022-09-09T08:34:17;97432.44;;;30.56;35.19
8061;BME280;4073;42.626;25.386;2022-09-09T08:36:46;97431.25;;;30.50;34.69
8061;BME280;4073;42.626;25.386;2022-09-09T08:39:14;97428.88;;;30.63;35.10
8061;BME280;4073;42.626;25.386;2022-09-09T08:42:17;97410.78;;;30.72;35.09
8061;BME280;4073;42.626;25.386;2022-09-09T08:55:53;97421.41;;;30.25;36.73
8061;BME280;4073;42.626;25.386;2022-09-09T08:58:29;97421.41;;;30.28;36.65
8061;BME280;4073;42.626;25.386;2022-09-09T09:09:28;97407.59;;;30.84;35.85
8061;BME280;4073;42.626;25.386;2022-09-09T09:11:57;97417.06;;;30.69;36.03
8061;BME280;4073;42.626;25.386;2022-09-09T09:14:33;97404.44;;;30.68;36.21
8061;BME280;4073;42.626;25.386;2022-09-09T09:17:04;97410.72;;;31.00;35.42
8061;BME280;4073;42.626;25.386;2022-09-09T09:19:33;97408.28;;;31.27;34.96
8061;BME280;4073;42.626;25.386;2022-09-09T09:24:54;97389.94;;;31.64;34.41
8061;BME280;4073;42.626;25.386;2022-09-09T09:30:00;97392.75;;;31.57;34.67
8061;BME280;4073;42.626;25.386;2022-09-09T09:32:31;97392.69;;;31.68;34.38
8061;BME280;4073;42.626;25.386;2022-09-09T09:34:58;97386.78;;;31.62;34.36
8061;BME280;4073;42.626;25.386;2022-09-09T09:37:33;97389.91;;;31.68;34.25
8061;BME280;4073;42.626;25.386;2022-09-09T09:40:18;97387.09;;;31.78;34.27
8061;BME280;4073;42.626;25.386;2022-09-09T09:43:00;97396.19;;;31.82;34.13
8061;BME280;4073;42.626;25.386;2022-09-09T09:45:33;97388.72;;;31.72;34.33
8061;BME280;4073;42.626;25.386;2022-09-09T09:48:05;97381.25;;;31.66;34.14
8061;BME280;4073;42.626;25.386;2022-09-09T09:50:32;97376.31;;;31.29;35.40
8061;BME280;4073;42.626;25.386;2022-09-09T09:53:03;97384.94;;;31.38;35.56
8061;BME280;4073;42.626;25.386;2022-09-09T09:55:33;97376.94;;;31.61;35.19
8061;BME280;4073;42.626;25.386;2022-09-09T09:58:04;97366.28;;;31.60;34.96
8061;BME280;4073;42.626;25.386;2022-09-09T10:00:30;97371.41;;;31.65;35.17
8061;BME280;4073;42.626;25.386;2022-09-09T10:02:56;97363.47;;;31.70;35.28
8061;BME280;4073;42.626;25.386;2022-09-09T10:05:25;97370.56;;;31.71;35.06
8061;BME280;4073;42.626;25.386;2022-09-09T10:08:12;97373.78;;;31.59;34.75
8061;BME280;4073;42.626;25.386;2022-09-09T10:13:26;97365.38;;;31.84;35.37
8061;BME280;4073;42.626;25.386;2022-09-09T10:19:00;97366.34;;;32.11;33.97
8061;BME280;4073;42.626;25.386;2022-09-09T10:24:08;97365.41;;;31.80;35.04
8061;BME280;4073;42.626;25.386;2022-09-09T10:51:22;97334.16;;;33.72;32.99
8061;BME280;4073;42.626;25.386;2022-09-09T10:54:41;97341.38;;;33.33;32.79
8061;BME280;4073;42.626;25.386;2022-09-09T10:56:52;97341.31;;;33.96;31.68
8061;BME280;4073;42.626;25.386;2022-09-09T10:59:26;97322.09;;;34.32;31.06
8061;BME280;4073;42.626;25.386;2022-09-09T11:01:59;97321.94;;;34.85;30.66
8061;BME280;4073;42.626;25.386;2022-09-09T11:04:34;97337.03;;;35.23;29.88
8061;BME280;4073;42.626;25.386;2022-09-09T11:07:08;97331.94;;;35.41;29.63
8061;BME280;4073;42.626;25.386;2022-09-09T11:09:39;97336.31;;;35.58;29.22
8061;BME280;4073;42.626;25.386;2022-09-09T11:12:13;97331.13;;;35.41;29.35
8061;BME280;4073;42.626;25.386;2022-09-09T11:15:06;97326.03;;;35.00;29.69
8061;BME280;4073;42.626;25.386;2022-09-09T11:17:45;97316.63;;;34.71;30.81
8061;BME280;4073;42.626;25.386;2022-09-09T11:20:13;97315.34;;;34.10;31.22
8061;BME280;4073;42.626;25.386;2022-09-09T11:22:43;97316.13;;;33.57;32.82
8061;BME280;4073;42.626;25.386;2022-09-09T11:38:52;97295.47;;;32.68;34.16
8061;BME280;4073;42.626;25.386;2022-09-09T11:41:19;97284.41;;;32.68;34.64
8061;BME280;4073;42.626;25.386;2022-09-09T11:43:52;97277.34;;;32.64;34.71
8061;BME280;4073;42.626;25.386;2022-09-09T11:46:32;97282.47;;;32.62;34.41
8061;BME280;4073;42.626;25.386;2022-09-09T11:49:02;97270.31;;;32.56;35.23
8061;BME280;4073;42.626;25.386;2022-09-09T11:51:30;97263.34;;;32.41;35.12
8061;BME280;4073;42.626;25.386;2022-09-09T11:54:01;97272.13;;;32.32;34.76
8061;BME280;4073;42.626;25.386;2022-09-09T11:56:42;97262.66;;;32.30;34.91
8061;BME280;4073;42.626;25.386;2022-09-09T12:01:55;97259.78;;;31.99;35.65
8061;BME280;4073;42.626;25.386;2022-09-09T12:07:03;97259.50;;;31.83;35.58
8061;BME280;4073;42.626;25.386;2022-09-09T12:12:31;97252.31;;;31.42;36.46
8061;BME280;4073;42.626;25.386;2022-09-09T12:20:33;97231.84;;;31.36;37.27
8061;BME280;4073;42.626;25.386;2022-09-09T12:23:18;97237.50;;;31.69;36.50
8061;BME280;4073;42.626;25.386;2022-09-09T12:26:04;97233.16;;;32.16;35.72
8061;BME280;4073;42.626;25.386;2022-09-09T12:28:48;97228.25;;;32.34;34.82
8061;BME280;4073;42.626;25.386;2022-09-09T12:31:39;97228.53;;;32.06;35.81
8061;BME280;4073;42.626;25.386;2022-09-09T12:34:33;97220.09;;;31.72;35.89
8061;BME280;4073;42.626;25.386;2022-09-09T12:40:35;97204.97;;;31.40;36.96
8061;BME280;4073;42.626;25.386;2022-09-09T12:42:39;97200.78;;;31.18;37.72
8061;BME280;4073;42.626;25.386;2022-09-09T12:45:19;97205.22;;;30.98;37.89
8061;BME280;4073;42.626;25.386;2022-09-09T12:50:29;97196.16;;;31.01;37.87
8061;BME280;4073;42.626;25.386;2022-09-09T12:52:59;97192.50;;;31.14;38.23
8061;BME280;4073;42.626;25.386;2022-09-09T12:55:31;97190.47;;;31.29;37.74
8061;BME280;4073;42.626;25.386;2022-09-09T12:57:59;97192.44;;;31.21;37.53
8061;BME280;4073;42.626;25.386;2022-09-09T13:00:26;97192.19;;;31.02;37.70
8061;BME280;4073;42.626;25.386;2022-09-09T13:02:56;97188.66;;;30.94;37.77
8061;BME280;4073;42.626;25.386;2022-09-09T13:05:27;97190.28;;;30.88;38.14
8061;BME280;4073;42.626;25.386;2022-09-09T13:08:03;97194.69;;;30.79;38.41
8061;BME280;4073;42.626;25.386;2022-09-09T13:10:31;97197.06;;;30.70;38.88
8061;BME280;4073;42.626;25.386;2022-09-09T13:12:59;97183.28;;;30.63;39.09
8061;BME280;4073;42.626;25.386;2022-09-09T13:15:27;97190.47;;;30.50;39.30
8061;BME280;4073;42.626;25.386;2022-09-09T13:17:56;97181.81;;;30.37;39.40
8061;BME280;4073;42.626;25.386;2022-09-09T13:20:23;97183.00;;;30.36;39.68
8061;BME280;4073;42.626;25.386;2022-09-09T13:22:50;97182.22;;;30.39;39.04
8061;BME280;4073;42.626;25.386;2022-09-09T13:25:26;97173.88;;;30.53;39.69
8061;BME280;4073;42.626;25.386;2022-09-09T13:27:55;97175.41;;;30.65;39.55
8061;BME280;4073;42.626;25.386;2022-09-09T13:30:39;97168.28;;;30.71;39.49
8061;BME280;4073;42.626;25.386;2022-09-09T13:36:06;97171.03;;;30.74;38.82
8061;BME280;4073;42.626;25.386;2022-09-09T13:38:38;97167.88;;;30.79;38.98
8061;BME280;4073;42.626;25.386;2022-09-09T13:41:10;97160.41;;;30.69;38.82
8061;BME280;4073;42.626;25.386;2022-09-09T13:43:44;97157.66;;;30.69;39.25
8061;BME280;4073;42.626;25.386;2022-09-09T13:46:40;97152.41;;;30.92;38.49
8061;BME280;4073;42.626;25.386;2022-09-09T13:54:04;97157.25;;;30.67;38.52
8061;BME280;4073;42.626;25.386;2022-09-09T13:56:33;97158.41;;;30.70;38.38
8061;BME280;4073;42.626;25.386;2022-09-09T13:58:58;97155.59;;;30.91;38.50
8061;BME280;4073;42.626;25.386;2022-09-09T14:01:24;97146.59;;;30.73;38.41
8061;BME280;4073;42.626;25.386;2022-09-09T14:03:49;97142.06;;;30.31;39.48
8061;BME280;4073;42.626;25.386;2022-09-09T14:06:16;97136.63;;;29.96;40.31
8061;BME280;4073;42.626;25.386;2022-09-09T14:08:41;97135.47;;;29.94;40.51
8061;BME280;4073;42.626;25.386;2022-09-09T14:11:11;97140.25;;;29.76;41.07
8061;BME280;4073;42.626;25.386;2022-09-09T14:13:37;97143.03;;;29.61;41.62
8061;BME280;4073;42.626;25.386;2022-09-09T14:16:03;97137.50;;;29.47;42.16
8061;BME280;4073;42.626;25.386;2022-09-09T14:18:28;97130.81;;;29.48;41.84
8061;BME280;4073;42.626;25.386;2022-09-09T14:20:54;97149.69;;;29.43;41.74
8061;BME280;4073;42.626;25.386;2022-09-09T14:23:19;97137.09;;;29.38;42.14
8061;BME280;4073;42.626;25.386;2022-09-09T14:25:47;97137.88;;;29.28;42.28
8061;BME280;4073;42.626;25.386;2022-09-09T14:28:13;97136.69;;;29.15;42.37
8061;BME280;4073;42.626;25.386;2022-09-09T14:30:40;97134.34;;;29.07;42.76
8061;BME280;4073;42.626;25.386;2022-09-09T14:33:09;97131.94;;;28.98;43.06
8061;BME280;4073;42.626;25.386;2022-09-09T14:35:35;97125.63;;;28.91;43.01
8061;BME280;4073;42.626;25.386;2022-09-09T14:38:02;97122.88;;;28.91;43.16
8061;BME280;4073;42.626;25.386;2022-09-09T14:40:27;97125.66;;;28.87;43.36
8061;BME280;4073;42.626;25.386;2022-09-09T14:42:53;97123.66;;;28.88;42.70
8061;BME280;4073;42.626;25.386;2022-09-09T14:45:19;97130.72;;;28.85;42.86
8061;BME280;4073;42.626;25.386;2022-09-09T14:47:46;97141.38;;;28.83;42.84
8061;BME280;4073;42.626;25.386;2022-09-09T14:50:12;97134.66;;;28.84;42.68
8061;BME280;4073;42.626;25.386;2022-09-09T14:52:37;97133.50;;;28.89;42.40
8061;BME280;4073;42.626;25.386;2022-09-09T14:55:03;97128.00;;;28.92;42.51
8061;BME280;4073;42.626;25.386;2022-09-09T14:57:29;97127.22;;;28.92;42.12
8061;BME280;4073;42.626;25.386;2022-09-09T14:59:55;97128.00;;;28.89;42.43
8061;BME280;4073;42.626;25.386;2022-09-09T15:02:22;97139.00;;;28.92;42.33
8061;BME280;4073;42.626;25.386;2022-09-09T15:04:47;97137.81;;;28.90;42.60
8061;BME280;4073;42.626;25.386;2022-09-09T15:07:15;97142.16;;;28.87;42.60
8061;BME280;4073;42.626;25.386;2022-09-09T15:09:42;97144.13;;;28.83;42.25
8061;BME280;4073;42.626;25.386;2022-09-09T15:12:07;97135.06;;;28.76;42.84
8061;BME280;4073;42.626;25.386;2022-09-09T15:14:33;97128.75;;;28.72;43.03
8061;BME280;4073;42.626;25.386;2022-09-09T15:16:59;97122.03;;;28.62;42.61
8061;BME280;4073;42.626;25.386;2022-09-09T15:19:24;97134.22;;;28.58;42.91
8061;BME280;4073;42.626;25.386;2022-09-09T15:21:50;97132.63;;;28.57;43.07
8061;BME280;4073;42.626;25.386;2022-09-09T15:24:15;97129.09;;;28.53;42.94
8061;BME280;4073;42.626;25.386;2022-09-09T15:26:41;97127.13;;;28.46;43.33
8061;BME280;4073;42.626;25.386;2022-09-09T15:29:07;97126.28;;;28.39;43.19
8061;BME280;4073;42.626;25.386;2022-09-09T15:31:33;97132.19;;;28.41;43.81
8061;BME280;4073;42.626;25.386;2022-09-09T15:34:00;97131.00;;;28.42;43.91
8061;BME280;4073;42.626;25.386;2022-09-09T15:36:31;97128.28;;;28.45;43.79
8061;BME280;4073;42.626;25.386;2022-09-09T15:38:59;97132.22;;;28.44;44.09
8061;BME280;4073;42.626;25.386;2022-09-09T15:41:25;97128.25;;;28.42;43.99
8061;BME280;4073;42.626;25.386;2022-09-09T15:43:55;97123.94;;;28.41;44.09
8061;BME280;4073;42.626;25.386;2022-09-09T15:49:05;97127.78;;;28.22;44.58
8061;BME280;4073;42.626;25.386;2022-09-09T15:51:31;97121.53;;;28.25;44.76